sensor_id;sensor_type;location;lat;lon;timestamp;pressure;altitude;pressure_sealevel;temperature
60615;BMP280;46444;45.590;5.284;2023-03-01T00:01:48;99241.66;;;3.54
60615;BMP280;46444;45.590;5.284;2023-03-01T00:04:20;99236.88;;;3.64
60615;BMP280;46444;45.590;5.284;2023-03-01T00:06:46;99237.16;;;3.69
60615;BMP280;46444;45.590;5.284;2023-03-01T00:09:14;99244.25;;;3.69
60615;BMP280;46444;45.590;5.284;2023-03-01T00:11:55;99237.16;;;3.69
60615;BMP280;46444;45.590;5.284;2023-03-01T00:14:41;99236.81;;;3.72
60615;BMP280;46444;45.590;5.284;2023-03-01T00:17:26;99240.53;;;3.63
60615;BMP280;46444;45.590;5.284;2023-03-01T00:19:57;99238.75;;;3.78
60615;BMP280;46444;45.590;5.284;2023-03-01T00:22:43;99248.28;;;3.65
60615;BMP280;46444;45.590;5.284;2023-03-01T00:25:35;99243.72;;;3.59
60615;BMP280;46444;45.590;5.284;2023-03-01T00:28:14;99244.19;;;3.62
60615;BMP280;46444;45.590;5.284;2023-03-01T00:30:51;99243.81;;;3.65
60615;BMP280;46444;45.590;5.284;2023-03-01T00:33:22;99242.63;;;3.53
60615;BMP280;46444;45.590;5.284;2023-03-01T00:35:49;99246.72;;;3.70
60615;BMP280;46444;45.590;5.284;2023-03-01T00:38:15;99246.47;;;3.80
60615;BMP280;46444;45.590;5.284;2023-03-01T00:40:50;99240.34;;;3.50
60615;BMP280;46444;45.590;5.284;2023-03-01T00:43:17;99231.25;;;3.82
60615;BMP280;46444;45.590;5.284;2023-03-01T00:45:48;99235.06;;;3.50
60615;BMP280;46444;45.590;5.284;2023-03-01T00:48:24;99236.16;;;3.70
60615;BMP280;46444;45.590;5.284;2023-03-01T00:51:25;99233.88;;;3.53
60615;BMP280;46444;45.590;5.284;2023-03-01T00:53:58;99235.53;;;3.68
60615;BMP280;46444;45.590;5.284;2023-03-01T00:56:38;99226.41;;;3.56
60615;BMP280;46444;45.590;5.284;2023-03-01T00:59:13;99218.56;;;3.63
60615;BMP280;46444;45.590;5.284;2023-03-01T01:02:28;99224.13;;;3.53
60615;BMP280;46444;45.590;5.284;2023-03-01T01:05:34;99221.13;;;3.42
60615;BMP280;46444;45.590;5.284;2023-03-01T01:08:04;99222.50;;;3.52
60615;BMP280;46444;45.590;5.284;2023-03-01T01:10:40;99221.47;;;3.39
60615;BMP280;46444;45.590;5.284;2023-03-01T01:13:13;99225.84;;;3.32
60615;BMP280;46444;45.590;5.284;2023-03-01T01:15:42;99223.38;;;3.16
60615;BMP280;46444;45.590;5.284;2023-03-01T01:18:14;99222.91;;;3.27
60615;BMP280;46444;45.590;5.284;2023-03-01T01:20:46;99220.41;;;2.96
60615;BMP280;46444;45.590;5.284;2023-03-01T01:23:13;99213.31;;;3.11
60615;BMP280;46444;45.590;5.284;2023-03-01T01:25:43;99215.91;;;3.19
60615;BMP280;46444;45.590;5.284;2023-03-01T01:28:12;99224.75;;;3.26
60615;BMP280;46444;45.590;5.284;2023-03-01T01:31:25;99214.53;;;2.86
60615;BMP280;46444;45.590;5.284;2023-03-01T01:34:04;99213.03;;;3.06
60615;BMP280;46444;45.590;5.284;2023-03-01T01:36:40;99213.56;;;3.24
60615;BMP280;46444;45.590;5.284;2023-03-01T01:39:16;99214.97;;;3.27
60615;BMP280;46444;45.590;5.284;2023-03-01T01:41:55;99199.81;;;3.29
60615;BMP280;46444;45.590;5.284;2023-03-01T01:44:47;99203.34;;;3.21
60615;BMP280;46444;45.590;5.284;2023-03-01T01:47:20;99202.75;;;3.11
60615;BMP280;46444;45.590;5.284;2023-03-01T01:49:57;99200.63;;;2.92
60615;BMP280;46444;45.590;5.284;2023-03-01T01:55:05;99188.00;;;3.02
60615;BMP280;46444;45.590;5.284;2023-03-01T01:57:43;99191.44;;;3.03
60615;BMP280;46444;45.590;5.284;2023-03-01T02:00:18;99181.34;;;2.92
60615;BMP280;46444;45.590;5.284;2023-03-01T02:03:10;99172.22;;;2.94
60615;BMP280;46444;45.590;5.284;2023-03-01T02:06:04;99175.25;;;2.91
60615;BMP280;46444;45.590;5.284;2023-03-01T02:08:33;99177.50;;;2.94
60615;BMP280;46444;45.590;5.284;2023-03-01T02:11:01;99184.00;;;2.92
60615;BMP280;46444;45.590;5.284;2023-03-01T02:13:42;99184.88;;;2.84
60615;BMP280;46444;45.590;5.284;2023-03-01T02:16:28;99183.41;;;2.82
60615;BMP280;46444;45.590;5.284;2023-03-01T02:18:55;99169.97;;;2.91
60615;BMP280;46444;45.590;5.284;2023-03-01T02:24:14;99154.47;;;2.88
60615;BMP280;46444;45.590;5.284;2023-03-01T02:26:46;99160.75;;;2.87
60615;BMP280;46444;45.590;5.284;2023-03-01T02:29:14;99163.81;;;2.76
60615;BMP280;46444;45.590;5.284;2023-03-01T02:31:41;99163.25;;;2.66
60615;BMP280;46444;45.590;5.284;2023-03-01T02:34:22;99162.84;;;2.55
60615;BMP280;46444;45.590;5.284;2023-03-01T02:37:12;99157.22;;;2.58
60615;BMP280;46444;45.590;5.284;2023-03-01T02:39:45;99146.00;;;2.41
60615;BMP280;46444;45.590;5.284;2023-03-01T02:42:18;99148.63;;;2.41
60615;BMP280;46444;45.590;5.284;2023-03-01T02:44:46;99140.75;;;2.56
60615;BMP280;46444;45.590;5.284;2023-03-01T02:47:14;99131.44;;;2.68
60615;BMP280;46444;45.590;5.284;2023-03-01T02:49:44;99136.16;;;2.72
60615;BMP280;46444;45.590;5.284;2023-03-01T02:52:45;99136.72;;;2.82
60615;BMP280;46444;45.590;5.284;2023-03-01T02:55:17;99126.88;;;2.62
60615;BMP280;46444;45.590;5.284;2023-03-01T02:57:45;99135.16;;;2.73
60615;BMP280;46444;45.590;5.284;2023-03-01T03:00:15;99118.66;;;2.57
60615;BMP280;46444;45.590;5.284;2023-03-01T03:02:48;99128.88;;;2.74
60615;BMP280;46444;45.590;5.284;2023-03-01T03:05:22;99114.53;;;2.91
60615;BMP280;46444;45.590;5.284;2023-03-01T03:07:49;99122.13;;;2.72
60615;BMP280;46444;45.590;5.284;2023-03-01T03:10:21;99117.53;;;2.88
60615;BMP280;46444;45.590;5.284;2023-03-01T03:12:59;99108.25;;;2.92
60615;BMP280;46444;45.590;5.284;2023-03-01T03:15:27;99107.13;;;2.72
60615;BMP280;46444;45.590;5.284;2023-03-01T03:17:55;99108.41;;;2.39
60615;BMP280;46444;45.590;5.284;2023-03-01T03:20:23;99116.78;;;2.65
60615;BMP280;46444;45.590;5.284;2023-03-01T03:22:53;99115.09;;;2.64
60615;BMP280;46444;45.590;5.284;2023-03-01T03:25:19;99099.03;;;2.59
60615;BMP280;46444;45.590;5.284;2023-03-01T03:27:47;99099.47;;;2.63
60615;BMP280;46444;45.590;5.284;2023-03-01T03:30:18;99100.75;;;2.81
60615;BMP280;46444;45.590;5.284;2023-03-01T03:32:45;99095.16;;;2.47
60615;BMP280;46444;45.590;5.284;2023-03-01T03:35:26;99098.16;;;2.44
60615;BMP280;46444;45.590;5.284;2023-03-01T03:37:53;99095.88;;;2.78
60615;BMP280;46444;45.590;5.284;2023-03-01T03:40:31;99094.13;;;2.71
60615;BMP280;46444;45.590;5.284;2023-03-01T03:42:57;99090.91;;;2.61
60615;BMP280;46444;45.590;5.284;2023-03-01T03:45:22;99084.75;;;2.68
60615;BMP280;46444;45.590;5.284;2023-03-01T03:47:49;99093.94;;;2.35
60615;BMP280;46444;45.590;5.284;2023-03-01T03:50:17;99089.09;;;2.61
60615;BMP280;46444;45.590;5.284;2023-03-01T03:52:43;99093.66;;;2.67
60615;BMP280;46444;45.590;5.284;2023-03-01T03:55:11;99087.53;;;2.67
60615;BMP280;46444;45.590;5.284;2023-03-01T03:57:37;99097.78;;;2.84
60615;BMP280;46444;45.590;5.284;2023-03-01T04:00:05;99092.38;;;2.63
60615;BMP280;46444;45.590;5.284;2023-03-01T04:02:31;99093.50;;;2.69
60615;BMP280;46444;45.590;5.284;2023-03-01T04:04:56;99092.16;;;2.50
60615;BMP280;46444;45.590;5.284;2023-03-01T04:07:22;99092.38;;;2.63
60615;BMP280;46444;45.590;5.284;2023-03-01T04:09:48;99087.47;;;2.60
60615;BMP280;46444;45.590;5.284;2023-03-01T04:12:13;99089.09;;;2.61
60615;BMP280;46444;45.590;5.284;2023-03-01T04:14:39;99093.28;;;2.56
60615;BMP280;46444;45.590;5.284;2023-03-01T04:17:08;99087.38;;;2.68
60615;BMP280;46444;45.590;5.284;2023-03-01T04:19:37;99092.16;;;2.50
60615;BMP280;46444;45.590;5.284;2023-03-01T04:22:12;99080.41;;;2.38
60615;BMP280;46444;45.590;5.284;2023-03-01T04:24:44;99087.47;;;2.38
60615;BMP280;46444;45.590;5.284;2023-03-01T04:27:12;99088.78;;;2.42
60615;BMP280;46444;45.590;5.284;2023-03-01T04:29:39;99081.47;;;2.66
60615;BMP280;46444;45.590;5.284;2023-03-01T04:32:07;99088.47;;;2.59
60615;BMP280;46444;45.590;5.284;2023-03-01T04:34:33;99068.72;;;2.55
60615;BMP280;46444;45.590;5.284;2023-03-01T04:37:01;99071.53;;;2.54
60615;BMP280;46444;45.590;5.284;2023-03-01T04:39:29;99082.53;;;2.20
60615;BMP280;46444;45.590;5.284;2023-03-01T04:41:57;99081.47;;;2.29
60615;BMP280;46444;45.590;5.284;2023-03-01T04:44:25;99073.69;;;2.50
60615;BMP280;46444;45.590;5.284;2023-03-01T04:46:56;99084.13;;;2.29
60615;BMP280;46444;45.590;5.284;2023-03-01T04:49:24;99072.19;;;2.56
60615;BMP280;46444;45.590;5.284;2023-03-01T04:51:49;99072.25;;;2.62
60615;BMP280;46444;45.590;5.284;2023-03-01T04:54:16;99086.38;;;2.32
60615;BMP280;46444;45.590;5.284;2023-03-01T04:56:42;99077.06;;;2.44
60615;BMP280;46444;45.590;5.284;2023-03-01T04:59:10;99066.97;;;2.48
60615;BMP280;46444;45.590;5.284;2023-03-01T05:01:38;99091.03;;;2.30
60615;BMP280;46444;45.590;5.284;2023-03-01T05:04:09;99076.00;;;2.53
60615;BMP280;46444;45.590;5.284;2023-03-01T05:06:38;99068.09;;;2.53
60615;BMP280;46444;45.590;5.284;2023-03-01T05:09:03;99057.59;;;2.45
60615;BMP280;46444;45.590;5.284;2023-03-01T05:11:28;99058.78;;;2.57
60615;BMP280;46444;45.590;5.284;2023-03-01T05:13:58;99074.44;;;2.59
60615;BMP280;46444;45.590;5.284;2023-03-01T05:16:24;99070.44;;;2.48
60615;BMP280;46444;45.590;5.284;2023-03-01T05:18:51;99072.91;;;2.64
60615;BMP280;46444;45.590;5.284;2023-03-01T05:21:17;99070.84;;;2.37
60615;BMP280;46444;45.590;5.284;2023-03-01T05:23:42;99077.88;;;2.22
60615;BMP280;46444;45.590;5.284;2023-03-01T05:26:09;99049.94;;;2.36
60615;BMP280;46444;45.590;5.284;2023-03-01T05:29:26;99071.75;;;2.07
60615;BMP280;46444;45.590;5.284;2023-03-01T05:32:14;99072.34;;;2.17
60615;BMP280;46444;45.590;5.284;2023-03-01T05:34:41;99075.16;;;2.16
60615;BMP280;46444;45.590;5.284;2023-03-01T05:37:08;99068.88;;;2.17
60615;BMP280;46444;45.590;5.284;2023-03-01T05:39:36;99060.56;;;2.28
60615;BMP280;46444;45.590;5.284;2023-03-01T05:42:03;99058.47;;;2.23
60615;BMP280;46444;45.590;5.284;2023-03-01T05:44:31;99058.41;;;2.09
60615;BMP280;46444;45.590;5.284;2023-03-01T05:47:08;99070.88;;;2.15
60615;BMP280;46444;45.590;5.284;2023-03-01T05:49:36;99065.84;;;2.05
60615;BMP280;46444;45.590;5.284;2023-03-01T05:52:03;99058.63;;;2.22
60615;BMP280;46444;45.590;5.284;2023-03-01T05:54:29;99062.34;;;2.27
60615;BMP280;46444;45.590;5.284;2023-03-01T05:56:55;99068.75;;;2.10
60615;BMP280;46444;45.590;5.284;2023-03-01T05:59:21;99068.81;;;2.02
60615;BMP280;46444;45.590;5.284;2023-03-01T06:01:47;99068.47;;;2.05
60615;BMP280;46444;45.590;5.284;2023-03-01T06:04:12;99056.47;;;2.03
60615;BMP280;46444;45.590;5.284;2023-03-01T06:06:37;99070.81;;;2.00
60615;BMP280;46444;45.590;5.284;2023-03-01T06:09:04;99069.13;;;2.07
60615;BMP280;46444;45.590;5.284;2023-03-01T06:11:30;99073.28;;;2.24
60615;BMP280;46444;45.590;5.284;2023-03-01T06:13:55;99069.47;;;2.27
60615;BMP280;46444;45.590;5.284;2023-03-01T06:16:20;99078.72;;;2.23
60615;BMP280;46444;45.590;5.284;2023-03-01T06:18:46;99066.75;;;2.35
60615;BMP280;46444;45.590;5.284;2023-03-01T06:21:12;99067.09;;;2.32
60615;BMP280;46444;45.590;5.284;2023-03-01T06:23:37;99071.59;;;2.09
60615;BMP280;46444;45.590;5.284;2023-03-01T06:26:08;99065.41;;;2.16
60615;BMP280;46444;45.590;5.284;2023-03-01T06:28:34;99069.41;;;2.12
60615;BMP280;46444;45.590;5.284;2023-03-01T06:30:59;99057.25;;;2.26
60615;BMP280;46444;45.590;5.284;2023-03-01T06:33:25;99080.53;;;2.22
60615;BMP280;46444;45.590;5.284;2023-03-01T06:35:51;99067.63;;;2.27
60615;BMP280;46444;45.590;5.284;2023-03-01T06:38:16;99071.81;;;1.99
60615;BMP280;46444;45.590;5.284;2023-03-01T06:40:52;99072.06;;;2.12
60615;BMP280;46444;45.590;5.284;2023-03-01T06:43:19;99075.84;;;2.32
60615;BMP280;46444;45.590;5.284;2023-03-01T06:45:45;99073.56;;;2.07
60615;BMP280;46444;45.590;5.284;2023-03-01T06:48:10;99076.66;;;2.10
60615;BMP280;46444;45.590;5.284;2023-03-01T06:50:36;99068.97;;;1.78
60615;BMP280;46444;45.590;5.284;2023-03-01T06:53:03;99072.25;;;1.80
60615;BMP280;46444;45.590;5.284;2023-03-01T06:55:29;99084.25;;;1.60
60615;BMP280;46444;45.590;5.284;2023-03-01T06:57:55;99082.56;;;1.90
60615;BMP280;46444;45.590;5.284;2023-03-01T07:00:22;99080.44;;;1.93
60615;BMP280;46444;45.590;5.284;2023-03-01T07:02:47;99087.47;;;1.70
60615;BMP280;46444;45.590;5.284;2023-03-01T07:05:13;99084.28;;;1.52
60615;BMP280;46444;45.590;5.284;2023-03-01T07:07:38;99086.72;;;1.62
60615;BMP280;46444;45.590;5.284;2023-03-01T07:10:04;99083.00;;;1.79
60615;BMP280;46444;45.590;5.284;2023-03-01T07:12:29;99085.41;;;1.88
60615;BMP280;46444;45.590;5.284;2023-03-01T07:14:55;99085.88;;;1.61
60615;BMP280;46444;45.590;5.284;2023-03-01T07:17:20;99085.34;;;1.66
60615;BMP280;46444;45.590;5.284;2023-03-01T07:43:02;99070.53;;;1.95
60615;BMP280;46444;45.590;5.284;2023-03-01T07:45:28;99073.78;;;1.97
60615;BMP280;46444;45.590;5.284;2023-03-01T07:47:54;99069.81;;;2.01
60615;BMP280;46444;45.590;5.284;2023-03-01T07:50:21;99069.91;;;1.63
60615;BMP280;46444;45.590;5.284;2023-03-01T07:52:49;99066.75;;;1.67
60615;BMP280;46444;45.590;5.284;2023-03-01T07:55:15;99055.97;;;1.77
60615;BMP280;46444;45.590;5.284;2023-03-01T07:57:46;99066.97;;;1.80
60615;BMP280;46444;45.590;5.284;2023-03-01T08:00:12;99065.66;;;1.84
60615;BMP280;46444;45.590;5.284;2023-03-01T08:02:38;99075.28;;;1.69
60615;BMP280;46444;45.590;5.284;2023-03-01T08:05:04;99073.34;;;1.63
60615;BMP280;46444;45.590;5.284;2023-03-01T08:07:29;99070.69;;;1.71
60615;BMP280;46444;45.590;5.284;2023-03-01T08:09:56;99064.28;;;1.66
60615;BMP280;46444;45.590;5.284;2023-03-01T08:12:21;99063.00;;;1.84
60615;BMP280;46444;45.590;5.284;2023-03-01T08:14:47;99067.50;;;1.76
60615;BMP280;46444;45.590;5.284;2023-03-01T08:17:15;99073.78;;;1.75
60615;BMP280;46444;45.590;5.284;2023-03-01T08:24:53;99074.53;;;1.61
60615;BMP280;46444;45.590;5.284;2023-03-01T08:29:54;99061.72;;;1.80
60615;BMP280;46444;45.590;5.284;2023-03-01T08:32:37;99056.25;;;1.59
60615;BMP280;46444;45.590;5.284;2023-03-01T08:39:31;99055.41;;;1.89
60615;BMP280;46444;45.590;5.284;2023-03-01T08:45:28;99052.72;;;1.97
60615;BMP280;46444;45.590;5.284;2023-03-01T09:01:52;99055.50;;;1.96
60615;BMP280;46444;45.590;5.284;2023-03-01T09:25:08;99039.72;;;2.18
60615;BMP280;46444;45.590;5.284;2023-03-01T09:30:10;99044.09;;;2.40
60615;BMP280;46444;45.590;5.284;2023-03-01T09:32:37;99041.56;;;2.32
60615;BMP280;46444;45.590;5.284;2023-03-01T09:35:10;99046.50;;;2.64
60615;BMP280;46444;45.590;5.284;2023-03-01T09:45:45;99042.19;;;2.71
60615;BMP280;46444;45.590;5.284;2023-03-01T09:48:16;99043.16;;;2.70
60615;BMP280;46444;45.590;5.284;2023-03-01T09:50:44;99047.41;;;2.42
60615;BMP280;46444;45.590;5.284;2023-03-01T09:53:17;99039.16;;;2.23
60615;BMP280;46444;45.590;5.284;2023-03-01T09:55:44;99047.03;;;2.45
60615;BMP280;46444;45.590;5.284;2023-03-01T09:58:29;99033.31;;;2.35
60615;BMP280;46444;45.590;5.284;2023-03-01T10:00:59;99041.34;;;2.19
60615;BMP280;46444;45.590;5.284;2023-03-01T10:03:43;99029.72;;;2.65
60615;BMP280;46444;45.590;5.284;2023-03-01T10:08:42;99025.06;;;2.67
60615;BMP280;46444;45.590;5.284;2023-03-01T10:11:25;99023.50;;;2.73
60615;BMP280;46444;45.590;5.284;2023-03-01T10:13:56;99032.59;;;2.85
60615;BMP280;46444;45.590;5.284;2023-03-01T11:56:30;98908.03;;;4.15
60615;BMP280;46444;45.590;5.284;2023-03-01T12:11:35;98900.66;;;4.45
60615;BMP280;46444;45.590;5.284;2023-03-01T22:48:46;98780.97;;;5.61
60615;BMP280;46444;45.590;5.284;2023-03-01T22:51:21;98780.38;;;5.59
60615;BMP280;46444;45.590;5.284;2023-03-01T22:53:47;98776.50;;;5.62
60615;BMP280;46444;45.590;5.284;2023-03-01T22:56:15;98770.38;;;5.61
60615;BMP280;46444;45.590;5.284;2023-03-01T22:58:41;98763.06;;;5.63
60615;BMP280;46444;45.590;5.284;2023-03-01T23:01:20;98767.53;;;5.63
60615;BMP280;46444;45.590;5.284;2023-03-01T23:03:46;98764.69;;;5.64
60615;BMP280;46444;45.590;5.284;2023-03-01T23:06:12;98769.97;;;5.64
60615;BMP280;46444;45.590;5.284;2023-03-01T23:08:37;98771.59;;;5.65
60615;BMP280;46444;45.590;5.284;2023-03-01T23:11:09;98765.72;;;5.63
60615;BMP280;46444;45.590;5.284;2023-03-01T23:13:35;98765.06;;;5.61
60615;BMP280;46444;45.590;5.284;2023-03-01T23:16:00;98765.31;;;5.53
60615;BMP280;46444;45.590;5.284;2023-03-01T23:18:26;98765.06;;;5.61
60615;BMP280;46444;45.590;5.284;2023-03-01T23:20:51;98765.47;;;5.65
60615;BMP280;46444;45.590;5.284;2023-03-01T23:23:16;98764.25;;;5.67
60615;BMP280;46444;45.590;5.284;2023-03-01T23:25:54;98757.31;;;5.66
60615;BMP280;46444;45.590;5.284;2023-03-01T23:28:20;98755.69;;;5.65
60615;BMP280;46444;45.590;5.284;2023-03-01T23:31:00;98754.47;;;5.61
60615;BMP280;46444;45.590;5.284;2023-03-01T23:33:26;98750.81;;;5.49
60615;BMP280;46444;45.590;5.284;2023-03-01T23:35:52;98750.84;;;5.43
60615;BMP280;46444;45.590;5.284;2023-03-01T23:38:18;98754.47;;;5.61
60615;BMP280;46444;45.590;5.284;2023-03-01T23:40:46;98746.31;;;5.63
60615;BMP280;46444;45.590;5.284;2023-03-01T23:43:11;98738.56;;;5.61
60615;BMP280;46444;45.590;5.284;2023-03-01T23:45:38;98739.63;;;5.54
60615;BMP280;46444;45.590;5.284;2023-03-01T23:48:09;98740.63;;;5.59
60615;BMP280;46444;45.590;5.284;2023-03-01T23:50:35;98742.66;;;5.44
60615;BMP280;46444;45.590;5.284;2023-03-01T23:53:07;98745.50;;;5.49
60615;BMP280;46444;45.590;5.284;2023-03-01T23:55:33;98755.34;;;5.36
60615;BMP280;46444;45.590;5.284;2023-03-01T23:57:58;98750.00;;;5.55
